sensor_id;sensor_type;location;lat;lon;timestamp;temperature;humidity
54796;DHT22;40693;43.884;20.340;2023-07-13T00:02:23;666.50;2432.00
54796;DHT22;40693;43.884;20.340;2023-07-13T00:04:49;691.20;2432.00
54796;DHT22;40693;43.884;20.340;2023-07-13T00:07:16;666.50;2432.00
54796;DHT22;40693;43.884;20.340;2023-07-13T00:09:46;666.30;2432.00
54796;DHT22;40693;43.884;20.340;2023-07-13T00:12:41;666.50;2432.00
54796;DHT22;40693;43.884;20.340;2023-07-13T00:15:14;666.50;2432.00
54796;DHT22;40693;43.884;20.340;2023-07-13T00:17:42;666.40;2432.00
54796;DHT22;40693;43.884;20.340;2023-07-13T00:20:10;666.50;2432.00
54796;DHT22;40693;43.884;20.340;2023-07-13T00:22:36;666.10;2432.00
54796;DHT22;40693;43.884;20.340;2023-07-13T00:25:03;666.10;2432.00
54796;DHT22;40693;43.884;20.340;2023-07-13T00:27:29;666.10;2432.00
54796;DHT22;40693;43.884;20.340;2023-07-13T00:29:57;665.90;2432.00
54796;DHT22;40693;43.884;20.340;2023-07-13T00:32:23;666.00;2432.00
54796;DHT22;40693;43.884;20.340;2023-07-13T00:34:51;666.00;2432.00
54796;DHT22;40693;43.884;20.340;2023-07-13T00:37:17;666.10;2432.00
54796;DHT22;40693;43.884;20.340;2023-07-13T00:39:43;666.10;2432.00
54796;DHT22;40693;43.884;20.340;2023-07-13T00:42:09;666.10;2432.00
54796;DHT22;40693;43.884;20.340;2023-07-13T00:44:35;666.10;2432.00
54796;DHT22;40693;43.884;20.340;2023-07-13T00:47:01;666.10;2432.00
54796;DHT22;40693;43.884;20.340;2023-07-13T00:49:30;666.00;2432.00
54796;DHT22;40693;43.884;20.340;2023-07-13T00:52:06;666.00;2432.00
54796;DHT22;40693;43.884;20.340;2023-07-13T00:54:40;665.90;2432.00
54796;DHT22;40693;43.884;20.340;2023-07-13T00:57:10;665.90;2432.00
54796;DHT22;40693;43.884;20.340;2023-07-13T00:59:38;665.90;2432.00
54796;DHT22;40693;43.884;20.340;2023-07-13T01:02:05;665.80;2432.00
54796;DHT22;40693;43.884;20.340;2023-07-13T01:04:30;665.80;2432.00
54796;DHT22;40693;43.884;20.340;2023-07-13T01:06:57;665.80;2432.00
54796;DHT22;40693;43.884;20.340;2023-07-13T01:09:23;665.70;2432.00
54796;DHT22;40693;43.884;20.340;2023-07-13T01:11:49;665.70;2432.00
54796;DHT22;40693;43.884;20.340;2023-07-13T01:14:15;665.70;2432.00
54796;DHT22;40693;43.884;20.340;2023-07-13T01:16:44;665.70;2432.00
54796;DHT22;40693;43.884;20.340;2023-07-13T01:19:38;665.70;2432.00
54796;DHT22;40693;43.884;20.340;2023-07-13T01:22:10;665.70;2432.00
54796;DHT22;40693;43.884;20.340;2023-07-13T01:24:37;665.60;2432.00
54796;DHT22;40693;43.884;20.340;2023-07-13T01:27:04;640.90;2432.00
54796;DHT22;40693;43.884;20.340;2023-07-13T01:29:32;640.80;2432.00
54796;DHT22;40693;43.884;20.340;2023-07-13T01:31:58;640.70;2432.00
54796;DHT22;40693;43.884;20.340;2023-07-13T01:34:26;640.60;2432.00
54796;DHT22;40693;43.884;20.340;2023-07-13T01:36:52;640.70;2432.00
54796;DHT22;40693;43.884;20.340;2023-07-13T01:39:21;640.50;2432.00
54796;DHT22;40693;43.884;20.340;2023-07-13T01:41:47;640.50;2432.00
54796;DHT22;40693;43.884;20.340;2023-07-13T01:44:16;640.50;2432.00
54796;DHT22;40693;43.884;20.340;2023-07-13T01:46:41;640.60;2432.00
54796;DHT22;40693;43.884;20.340;2023-07-13T01:49:07;640.50;2432.00
54796;DHT22;40693;43.884;20.340;2023-07-13T01:51:33;640.50;2432.00
54796;DHT22;40693;43.884;20.340;2023-07-13T01:53:59;640.40;2432.00
54796;DHT22;40693;43.884;20.340;2023-07-13T01:56:24;640.50;2432.00
54796;DHT22;40693;43.884;20.340;2023-07-13T01:58:52;640.50;2432.00
54796;DHT22;40693;43.884;20.340;2023-07-13T02:01:18;640.50;2432.00
54796;DHT22;40693;43.884;20.340;2023-07-13T02:03:43;640.50;2432.00
54796;DHT22;40693;43.884;20.340;2023-07-13T02:06:09;640.50;2432.00
54796;DHT22;40693;43.884;20.340;2023-07-13T02:08:35;640.40;2432.00
54796;DHT22;40693;43.884;20.340;2023-07-13T02:11:03;640.50;2432.00
54796;DHT22;40693;43.884;20.340;2023-07-13T02:13:28;640.50;2432.00
54796;DHT22;40693;43.884;20.340;2023-07-13T02:15:55;640.50;2432.00
54796;DHT22;40693;43.884;20.340;2023-07-13T02:18:21;640.60;2432.00
54796;DHT22;40693;43.884;20.340;2023-07-13T02:20:47;640.50;2432.00
54796;DHT22;40693;43.884;20.340;2023-07-13T02:23:13;640.50;2432.00
54796;DHT22;40693;43.884;20.340;2023-07-13T02:25:38;640.40;2432.00
54796;DHT22;40693;43.884;20.340;2023-07-13T02:28:04;640.20;2432.00
54796;DHT22;40693;43.884;20.340;2023-07-13T02:30:30;640.20;2432.00
54796;DHT22;40693;43.884;20.340;2023-07-13T02:32:57;640.10;2432.00
54796;DHT22;40693;43.884;20.340;2023-07-13T02:35:22;640.10;2432.00
54796;DHT22;40693;43.884;20.340;2023-07-13T02:37:48;640.10;2432.00
54796;DHT22;40693;43.884;20.340;2023-07-13T02:40:14;640.00;2432.00
54796;DHT22;40693;43.884;20.340;2023-07-13T02:42:40;640.00;2432.00
54796;DHT22;40693;43.884;20.340;2023-07-13T02:45:07;640.10;2432.00
54796;DHT22;40693;43.884;20.340;2023-07-13T02:47:33;640.10;2432.00
54796;DHT22;40693;43.884;20.340;2023-07-13T02:49:59;640.10;2432.00
54796;DHT22;40693;43.884;20.340;2023-07-13T02:52:25;640.10;2432.00
54796;DHT22;40693;43.884;20.340;2023-07-13T02:54:51;640.10;2432.00
54796;DHT22;40693;43.884;20.340;2023-07-13T02:57:16;640.10;2432.00
54796;DHT22;40693;43.884;20.340;2023-07-13T02:59:45;640.20;2432.00
54796;DHT22;40693;43.884;20.340;2023-07-13T03:02:11;640.20;2432.00
54796;DHT22;40693;43.884;20.340;2023-07-13T03:04:37;640.20;2432.00
54796;DHT22;40693;43.884;20.340;2023-07-13T03:07:03;640.10;2432.00
54796;DHT22;40693;43.884;20.340;2023-07-13T03:09:30;640.10;2432.00
54796;DHT22;40693;43.884;20.340;2023-07-13T03:11:56;640.10;2432.00
54796;DHT22;40693;43.884;20.340;2023-07-13T03:14:23;640.00;2432.00
54796;DHT22;40693;43.884;20.340;2023-07-13T03:16:49;615.20;2432.00
54796;DHT22;40693;43.884;20.340;2023-07-13T03:19:15;615.30;2432.00
54796;DHT22;40693;43.884;20.340;2023-07-13T03:21:41;615.20;2432.00
54796;DHT22;40693;43.884;20.340;2023-07-13T03:24:06;615.10;2432.00
54796;DHT22;40693;43.884;20.340;2023-07-13T03:26:32;615.00;2432.00
54796;DHT22;40693;43.884;20.340;2023-07-13T03:28:58;614.80;2432.00
54796;DHT22;40693;43.884;20.340;2023-07-13T03:31:32;614.80;2432.00
54796;DHT22;40693;43.884;20.340;2023-07-13T03:33:58;614.80;2432.00
54796;DHT22;40693;43.884;20.340;2023-07-13T03:36:26;614.80;2432.00
54796;DHT22;40693;43.884;20.340;2023-07-13T03:38:55;614.90;2432.00
54796;DHT22;40693;43.884;20.340;2023-07-13T03:41:22;615.00;2432.00
54796;DHT22;40693;43.884;20.340;2023-07-13T03:43:48;615.00;2432.00
54796;DHT22;40693;43.884;20.340;2023-07-13T03:46:15;615.00;2432.00
54796;DHT22;40693;43.884;20.340;2023-07-13T03:48:42;615.00;2432.00
54796;DHT22;40693;43.884;20.340;2023-07-13T03:51:09;614.80;2432.00
54796;DHT22;40693;43.884;20.340;2023-07-13T03:53:39;614.80;2432.00
54796;DHT22;40693;43.884;20.340;2023-07-13T03:56:06;614.70;2432.00
54796;DHT22;40693;43.884;20.340;2023-07-13T03:58:34;614.70;2432.00
54796;DHT22;40693;43.884;20.340;2023-07-13T04:01:02;614.70;2432.00
54796;DHT22;40693;43.884;20.340;2023-07-13T04:03:29;614.70;2432.00
54796;DHT22;40693;43.884;20.340;2023-07-13T04:05:59;614.70;2432.00
54796;DHT22;40693;43.884;20.340;2023-07-13T04:08:32;614.70;2432.00
54796;DHT22;40693;43.884;20.340;2023-07-13T04:10:58;614.60;2432.00
54796;DHT22;40693;43.884;20.340;2023-07-13T04:13:25;614.60;2432.00
54796;DHT22;40693;43.884;20.340;2023-07-13T04:15:51;614.60;2432.00
54796;DHT22;40693;43.884;20.340;2023-07-13T04:18:18;614.70;2432.00
54796;DHT22;40693;43.884;20.340;2023-07-13T04:20:46;614.80;2432.00
54796;DHT22;40693;43.884;20.340;2023-07-13T04:23:12;614.80;2432.00
54796;DHT22;40693;43.884;20.340;2023-07-13T04:25:38;615.10;2432.00
54796;DHT22;40693;43.884;20.340;2023-07-13T04:28:04;615.00;2432.00
54796;DHT22;40693;43.884;20.340;2023-07-13T04:30:30;615.10;2432.00
54796;DHT22;40693;43.884;20.340;2023-07-13T04:32:56;615.10;2432.00
54796;DHT22;40693;43.884;20.340;2023-07-13T04:35:22;615.20;2432.00
54796;DHT22;40693;43.884;20.340;2023-07-13T04:37:49;615.30;2432.00
54796;DHT22;40693;43.884;20.340;2023-07-13T04:40:17;615.30;2432.00
54796;DHT22;40693;43.884;20.340;2023-07-13T04:42:43;615.30;2432.00
54796;DHT22;40693;43.884;20.340;2023-07-13T04:45:10;640.00;2432.00
54796;DHT22;40693;43.884;20.340;2023-07-13T04:47:35;640.10;2432.00
54796;DHT22;40693;43.884;20.340;2023-07-13T04:50:02;640.10;2432.00
54796;DHT22;40693;43.884;20.340;2023-07-13T04:52:27;640.10;2432.00
54796;DHT22;40693;43.884;20.340;2023-07-13T04:54:53;614.90;2432.00
54796;DHT22;40693;43.884;20.340;2023-07-13T04:57:19;640.20;2432.00
54796;DHT22;40693;43.884;20.340;2023-07-13T04:59:45;640.20;2432.00
54796;DHT22;40693;43.884;20.340;2023-07-13T05:02:11;640.50;2432.00
54796;DHT22;40693;43.884;20.340;2023-07-13T05:04:37;640.20;2432.00
54796;DHT22;40693;43.884;20.340;2023-07-13T05:07:02;640.20;2432.00
54796;DHT22;40693;43.884;20.340;2023-07-13T05:09:28;640.20;2432.00
54796;DHT22;40693;43.884;20.340;2023-07-13T05:11:54;640.30;2432.00
54796;DHT22;40693;43.884;20.340;2023-07-13T05:14:20;640.30;2432.00
54796;DHT22;40693;43.884;20.340;2023-07-13T05:16:45;640.40;2432.00
54796;DHT22;40693;43.884;20.340;2023-07-13T05:19:11;640.60;2432.00
54796;DHT22;40693;43.884;20.340;2023-07-13T05:21:37;640.60;2432.00
54796;DHT22;40693;43.884;20.340;2023-07-13T05:24:03;640.80;2432.00
54796;DHT22;40693;43.884;20.340;2023-07-13T05:26:29;665.60;2432.00
54796;DHT22;40693;43.884;20.340;2023-07-13T05:28:55;665.60;2432.00
54796;DHT22;40693;43.884;20.340;2023-07-13T05:31:20;665.70;2432.00
54796;DHT22;40693;43.884;20.340;2023-07-13T05:33:46;665.80;2432.00
54796;DHT22;40693;43.884;20.340;2023-07-13T05:36:12;666.00;2432.00
54796;DHT22;40693;43.884;20.340;2023-07-13T05:38:38;666.00;2432.00
54796;DHT22;40693;43.884;20.340;2023-07-13T05:41:03;666.10;2432.00
54796;DHT22;40693;43.884;20.340;2023-07-13T05:43:29;666.20;2432.00
54796;DHT22;40693;43.884;20.340;2023-07-13T05:45:56;666.40;2432.00
54796;DHT22;40693;43.884;20.340;2023-07-13T05:48:22;666.50;2432.00
54796;DHT22;40693;43.884;20.340;2023-07-13T05:50:49;691.20;2432.00
54796;DHT22;40693;43.884;20.340;2023-07-13T05:53:15;691.30;2432.00
54796;DHT22;40693;43.884;20.340;2023-07-13T05:55:42;691.30;2432.00
54796;DHT22;40693;43.884;20.340;2023-07-13T05:58:08;691.50;2432.00
54796;DHT22;40693;43.884;20.340;2023-07-13T06:00:34;691.60;2432.00
54796;DHT22;40693;43.884;20.340;2023-07-13T06:02:59;691.60;2432.00
54796;DHT22;40693;43.884;20.340;2023-07-13T06:05:25;691.60;2432.00
54796;DHT22;40693;43.884;20.340;2023-07-13T06:07:52;691.70;2432.00
54796;DHT22;40693;43.884;20.340;2023-07-13T06:10:18;691.70;2432.00
54796;DHT22;40693;43.884;20.340;2023-07-13T06:12:43;691.70;2432.00
54796;DHT22;40693;43.884;20.340;2023-07-13T06:15:09;691.80;2432.00
54796;DHT22;40693;43.884;20.340;2023-07-13T06:17:35;691.90;2432.00
54796;DHT22;40693;43.884;20.340;2023-07-13T06:20:01;692.00;2432.00
54796;DHT22;40693;43.884;20.340;2023-07-13T06:22:26;692.10;2432.00
54796;DHT22;40693;43.884;20.340;2023-07-13T06:24:52;692.10;2432.00
54796;DHT22;40693;43.884;20.340;2023-07-13T06:27:18;716.80;2432.00
54796;DHT22;40693;43.884;20.340;2023-07-13T06:29:44;716.90;2432.00
54796;DHT22;40693;43.884;20.340;2023-07-13T06:32:10;717.00;2432.00
54796;DHT22;40693;43.884;20.340;2023-07-13T06:34:36;717.10;2432.00
54796;DHT22;40693;43.884;20.340;2023-07-13T06:37:02;717.20;2432.00
54796;DHT22;40693;43.884;20.340;2023-07-13T06:39:28;717.30;2432.00
54796;DHT22;40693;43.884;20.340;2023-07-13T06:41:53;717.40;2432.00
54796;DHT22;40693;43.884;20.340;2023-07-13T06:44:19;717.40;2432.00
54796;DHT22;40693;43.884;20.340;2023-07-13T06:46:45;717.50;2432.00
54796;DHT22;40693;43.884;20.340;2023-07-13T06:49:11;717.60;2432.00
54796;DHT22;40693;43.884;20.340;2023-07-13T06:51:36;717.70;2432.00
54796;DHT22;40693;43.884;20.340;2023-07-13T06:54:03;742.40;2432.00
54796;DHT22;40693;43.884;20.340;2023-07-13T06:56:28;742.50;2432.00
54796;DHT22;40693;43.884;20.340;2023-07-13T06:58:54;742.60;2432.00
54796;DHT22;40693;43.884;20.340;2023-07-13T07:01:20;742.60;2380.80
54796;DHT22;40693;43.884;20.340;2023-07-13T07:03:45;742.70;2380.80
54796;DHT22;40693;43.884;20.340;2023-07-13T07:06:19;742.80;2355.20
54796;DHT22;40693;43.884;20.340;2023-07-13T07:08:45;742.90;2432.00
54796;DHT22;40693;43.884;20.340;2023-07-13T07:11:19;743.00;2432.00
54796;DHT22;40693;43.884;20.340;2023-07-13T07:13:45;743.10;2380.80
54796;DHT22;40693;43.884;20.340;2023-07-13T07:16:11;743.10;2432.00
54796;DHT22;40693;43.884;20.340;2023-07-13T07:18:37;743.30;2380.80
54796;DHT22;40693;43.884;20.340;2023-07-13T07:21:04;743.30;2278.40
54796;DHT22;40693;43.884;20.340;2023-07-13T07:23:30;768.00;2304.00
54796;DHT22;40693;43.884;20.340;2023-07-13T07:25:55;768.10;2150.40
54796;DHT22;40693;43.884;20.340;2023-07-13T07:28:21;768.20;2176.00
54796;DHT22;40693;43.884;20.340;2023-07-13T07:30:48;768.30;2176.00
54796;DHT22;40693;43.884;20.340;2023-07-13T07:33:14;768.40;2124.80
54796;DHT22;40693;43.884;20.340;2023-07-13T07:35:40;768.50;2124.80
54796;DHT22;40693;43.884;20.340;2023-07-13T07:38:06;768.40;2124.80
54796;DHT22;40693;43.884;20.340;2023-07-13T07:40:37;768.70;2201.60
54796;DHT22;40693;43.884;20.340;2023-07-13T07:43:03;768.80;2201.60
54796;DHT22;40693;43.884;20.340;2023-07-13T07:45:29;768.90;2176.00
54796;DHT22;40693;43.884;20.340;2023-07-13T07:47:55;768.90;2124.80
54796;DHT22;40693;43.884;20.340;2023-07-13T07:50:26;793.60;2150.40
54796;DHT22;40693;43.884;20.340;2023-07-13T07:52:52;793.70;2124.80
54796;DHT22;40693;43.884;20.340;2023-07-13T07:55:18;793.80;2099.20
54796;DHT22;40693;43.884;20.340;2023-07-13T07:57:44;794.00;2099.20
54796;DHT22;40693;43.884;20.340;2023-07-13T08:00:10;794.00;2073.60
54796;DHT22;40693;43.884;20.340;2023-07-13T08:02:36;794.10;1971.20
54796;DHT22;40693;43.884;20.340;2023-07-13T08:05:02;794.10;2022.40
54796;DHT22;40693;43.884;20.340;2023-07-13T08:07:30;794.20;2073.60
54796;DHT22;40693;43.884;20.340;2023-07-13T08:09:56;794.50;2048.00
54796;DHT22;40693;43.884;20.340;2023-07-13T08:12:22;794.40;2048.00
54796;DHT22;40693;43.884;20.340;2023-07-13T08:14:50;794.50;2022.40
54796;DHT22;40693;43.884;20.340;2023-07-13T08:17:19;819.20;1945.60
54796;DHT22;40693;43.884;20.340;2023-07-13T08:19:45;819.30;1996.80
54796;DHT22;40693;43.884;20.340;2023-07-13T08:22:11;819.60;2022.40
54796;DHT22;40693;43.884;20.340;2023-07-13T08:24:37;819.70;2022.40
54796;DHT22;40693;43.884;20.340;2023-07-13T08:27:03;819.80;1996.80
54796;DHT22;40693;43.884;20.340;2023-07-13T08:29:28;819.90;1920.00
54796;DHT22;40693;43.884;20.340;2023-07-13T08:31:57;820.10;1971.20
54796;DHT22;40693;43.884;20.340;2023-07-13T08:34:23;820.10;1945.60
54796;DHT22;40693;43.884;20.340;2023-07-13T08:36:49;844.80;1996.80
54796;DHT22;40693;43.884;20.340;2023-07-13T08:39:15;844.90;1971.20
54796;DHT22;40693;43.884;20.340;2023-07-13T08:41:43;845.00;1920.00
54796;DHT22;40693;43.884;20.340;2023-07-13T08:44:22;845.00;1920.00
54796;DHT22;40693;43.884;20.340;2023-07-13T08:46:48;845.10;1920.00
54796;DHT22;40693;43.884;20.340;2023-07-13T08:49:21;845.20;1920.00
54796;DHT22;40693;43.884;20.340;2023-07-13T08:51:57;845.20;1868.80
54796;DHT22;40693;43.884;20.340;2023-07-13T08:56:54;845.70;1920.00
54796;DHT22;40693;43.884;20.340;2023-07-13T08:59:27;845.70;1894.40
54796;DHT22;40693;43.884;20.340;2023-07-13T09:04:29;870.60;1868.80
54796;DHT22;40693;43.884;20.340;2023-07-13T09:15:54;870.80;1740.80
54796;DHT22;40693;43.884;20.340;2023-07-13T09:18:33;871.10;1740.80
54796;DHT22;40693;43.884;20.340;2023-07-13T09:21:07;871.20;1740.80
54796;DHT22;40693;43.884;20.340;2023-07-13T09:23:35;871.30;1766.40
54796;DHT22;40693;43.884;20.340;2023-07-13T09:28:43;896.00;1766.40
54796;DHT22;40693;43.884;20.340;2023-07-13T09:31:16;896.10;1792.00
54796;DHT22;40693;43.884;20.340;2023-07-13T09:33:43;896.30;1689.60
54796;DHT22;40693;43.884;20.340;2023-07-13T09:36:25;896.40;1689.60
54796;DHT22;40693;43.884;20.340;2023-07-13T09:44:16;896.60;1740.80
54796;DHT22;40693;43.884;20.340;2023-07-13T09:47:01;896.90;1715.20
54796;DHT22;40693;43.884;20.340;2023-07-13T09:49:30;896.90;1740.80
54796;DHT22;40693;43.884;20.340;2023-07-13T09:52:04;921.60;1689.60
54796;DHT22;40693;43.884;20.340;2023-07-13T09:54:34;921.70;1664.00
54796;DHT22;40693;43.884;20.340;2023-07-13T09:57:01;921.70;1638.40
54796;DHT22;40693;43.884;20.340;2023-07-13T09:59:36;921.80;1612.80
54796;DHT22;40693;43.884;20.340;2023-07-13T10:05:00;922.00;1664.00
54796;DHT22;40693;43.884;20.340;2023-07-13T10:07:27;922.00;1715.20
54796;DHT22;40693;43.884;20.340;2023-07-13T10:09:54;922.30;1740.80
54796;DHT22;40693;43.884;20.340;2023-07-13T10:12:21;922.50;1664.00
54796;DHT22;40693;43.884;20.340;2023-07-13T10:14:59;922.50;1715.20
54796;DHT22;40693;43.884;20.340;2023-07-13T10:17:32;947.20;1792.00
54796;DHT22;40693;43.884;20.340;2023-07-13T10:20:04;947.40;1766.40
54796;DHT22;40693;43.884;20.340;2023-07-13T10:22:37;947.50;1740.80
54796;DHT22;40693;43.884;20.340;2023-07-13T10:25:25;947.70;1766.40
54796;DHT22;40693;43.884;20.340;2023-07-13T10:27:54;947.80;1740.80
54796;DHT22;40693;43.884;20.340;2023-07-13T10:30:27;947.80;1689.60
54796;DHT22;40693;43.884;20.340;2023-07-13T10:33:00;947.80;1664.00
54796;DHT22;40693;43.884;20.340;2023-07-13T10:35:28;947.70;1638.40
54796;DHT22;40693;43.884;20.340;2023-07-13T10:37:59;947.70;1664.00
54796;DHT22;40693;43.884;20.340;2023-07-13T10:40:34;947.80;1664.00
54796;DHT22;40693;43.884;20.340;2023-07-13T10:43:03;947.80;1587.20
54796;DHT22;40693;43.884;20.340;2023-07-13T10:45:34;947.90;1561.60
54796;DHT22;40693;43.884;20.340;2023-07-13T10:48:01;947.80;1587.20
54796;DHT22;40693;43.884;20.340;2023-07-13T10:50:29;948.10;1664.00
54796;DHT22;40693;43.884;20.340;2023-07-13T10:53:02;972.90;1638.40
54796;DHT22;40693;43.884;20.340;2023-07-13T10:55:37;973.00;1587.20
54796;DHT22;40693;43.884;20.340;2023-07-13T10:58:15;973.00;1612.80
54796;DHT22;40693;43.884;20.340;2023-07-13T11:00:48;973.20;1587.20
54796;DHT22;40693;43.884;20.340;2023-07-13T11:03:17;973.20;1561.60
54796;DHT22;40693;43.884;20.340;2023-07-13T11:05:43;973.20;1561.60
54796;DHT22;40693;43.884;20.340;2023-07-13T11:08:15;973.20;1561.60
54796;DHT22;40693;43.884;20.340;2023-07-13T11:10:54;973.50;1510.40
54796;DHT22;40693;43.884;20.340;2023-07-13T11:21:28;973.50;1561.60
54796;DHT22;40693;43.884;20.340;2023-07-13T11:24:17;973.50;1561.60
54796;DHT22;40693;43.884;20.340;2023-07-13T11:31:50;973.50;1536.00
54796;DHT22;40693;43.884;20.340;2023-07-13T11:34:24;973.50;1561.60
54796;DHT22;40693;43.884;20.340;2023-07-13T11:36:52;973.60;1561.60
54796;DHT22;40693;43.884;20.340;2023-07-13T11:39:31;973.50;1561.60
54796;DHT22;40693;43.884;20.340;2023-07-13T11:42:02;973.50;1536.00
54796;DHT22;40693;43.884;20.340;2023-07-13T11:44:30;973.50;1536.00
54796;DHT22;40693;43.884;20.340;2023-07-13T11:46:58;973.60;1510.40
54796;DHT22;40693;43.884;20.340;2023-07-13T11:49:42;973.60;1536.00
54796;DHT22;40693;43.884;20.340;2023-07-13T11:52:15;973.70;1536.00
54796;DHT22;40693;43.884;20.340;2023-07-13T11:54:55;973.60;1510.40
54796;DHT22;40693;43.884;20.340;2023-07-13T11:57:29;973.60;1510.40
54796;DHT22;40693;43.884;20.340;2023-07-13T12:00:26;973.70;1510.40
54796;DHT22;40693;43.884;20.340;2023-07-13T12:02:58;973.70;1510.40
54796;DHT22;40693;43.884;20.340;2023-07-13T12:05:26;998.50;1510.40
54796;DHT22;40693;43.884;20.340;2023-07-13T12:07:52;998.70;1510.40
54796;DHT22;40693;43.884;20.340;2023-07-13T12:10:28;998.70;1510.40
54796;DHT22;40693;43.884;20.340;2023-07-13T12:12:57;998.80;1484.80
54796;DHT22;40693;43.884;20.340;2023-07-13T12:15:27;998.90;1484.80
54796;DHT22;40693;43.884;20.340;2023-07-13T12:17:54;998.80;1484.80
54796;DHT22;40693;43.884;20.340;2023-07-13T12:20:26;999.00;1459.20
54796;DHT22;40693;43.884;20.340;2023-07-13T12:22:53;999.10;1459.20
54796;DHT22;40693;43.884;20.340;2023-07-13T12:25:19;999.30;1484.80
54796;DHT22;40693;43.884;20.340;2023-07-13T12:27:49;999.30;1459.20
54796;DHT22;40693;43.884;20.340;2023-07-13T12:30:30;1024.00;1408.00
54796;DHT22;40693;43.884;20.340;2023-07-13T12:33:01;1024.10;1510.40
54796;DHT22;40693;43.884;20.340;2023-07-13T12:35:30;1024.10;1408.00
54796;DHT22;40693;43.884;20.340;2023-07-13T12:37:59;1024.10;1433.60
54796;DHT22;40693;43.884;20.340;2023-07-13T12:40:32;1024.00;1408.00
54796;DHT22;40693;43.884;20.340;2023-07-13T12:42:59;1024.10;1382.40
54796;DHT22;40693;43.884;20.340;2023-07-13T12:45:27;1024.20;1382.40
54796;DHT22;40693;43.884;20.340;2023-07-13T12:48:06;1024.10;1408.00
54796;DHT22;40693;43.884;20.340;2023-07-13T12:50:41;1024.00;1382.40
54796;DHT22;40693;43.884;20.340;2023-07-13T12:53:19;999.30;1382.40
54796;DHT22;40693;43.884;20.340;2023-07-13T12:56:06;999.30;1408.00
54796;DHT22;40693;43.884;20.340;2023-07-13T12:58:40;999.20;1408.00
54796;DHT22;40693;43.884;20.340;2023-07-13T13:01:12;999.20;1408.00
54796;DHT22;40693;43.884;20.340;2023-07-13T13:03:44;999.20;1408.00
54796;DHT22;40693;43.884;20.340;2023-07-13T13:08:47;999.10;1433.60
54796;DHT22;40693;43.884;20.340;2023-07-13T13:11:17;999.20;1433.60
54796;DHT22;40693;43.884;20.340;2023-07-13T13:13:44;999.30;1433.60
54796;DHT22;40693;43.884;20.340;2023-07-13T13:18:53;999.30;1408.00
54796;DHT22;40693;43.884;20.340;2023-07-13T13:21:19;999.20;1408.00
54796;DHT22;40693;43.884;20.340;2023-07-13T13:23:46;999.30;1408.00
54796;DHT22;40693;43.884;20.340;2023-07-13T13:26:15;999.30;1408.00
54796;DHT22;40693;43.884;20.340;2023-07-13T13:28:42;999.30;1382.40
54796;DHT22;40693;43.884;20.340;2023-07-13T13:31:10;999.30;1408.00
54796;DHT22;40693;43.884;20.340;2023-07-13T13:33:40;1024.00;1433.60
54796;DHT22;40693;43.884;20.340;2023-07-13T13:36:18;1024.00;1459.20
54796;DHT22;40693;43.884;20.340;2023-07-13T13:38:45;999.30;1459.20
54796;DHT22;40693;43.884;20.340;2023-07-13T13:41:12;999.30;1459.20
54796;DHT22;40693;43.884;20.340;2023-07-13T13:43:40;999.20;1408.00
54796;DHT22;40693;43.884;20.340;2023-07-13T13:46:15;999.00;1408.00
54796;DHT22;40693;43.884;20.340;2023-07-13T13:48:42;999.20;1408.00
54796;DHT22;40693;43.884;20.340;2023-07-13T13:51:21;999.30;1408.00
54796;DHT22;40693;43.884;20.340;2023-07-13T13:53:47;999.30;1408.00
54796;DHT22;40693;43.884;20.340;2023-07-13T13:56:14;999.30;1408.00
54796;DHT22;40693;43.884;20.340;2023-07-13T13:58:40;999.30;1408.00
54796;DHT22;40693;43.884;20.340;2023-07-13T14:01:19;999.30;1408.00
54796;DHT22;40693;43.884;20.340;2023-07-13T14:03:45;1024.10;1433.60
54796;DHT22;40693;43.884;20.340;2023-07-13T14:06:15;1024.20;1433.60
54796;DHT22;40693;43.884;20.340;2023-07-13T14:08:41;1024.20;1459.20
54796;DHT22;40693;43.884;20.340;2023-07-13T14:11:12;1024.20;1433.60
54796;DHT22;40693;43.884;20.340;2023-07-13T14:13:42;1024.30;1433.60
54796;DHT22;40693;43.884;20.340;2023-07-13T14:16:13;1024.40;1433.60
54796;DHT22;40693;43.884;20.340;2023-07-13T14:18:40;1024.40;1408.00
54796;DHT22;40693;43.884;20.340;2023-07-13T14:21:14;1024.50;1433.60
54796;DHT22;40693;43.884;20.340;2023-07-13T14:23:40;1024.40;1433.60
54796;DHT22;40693;43.884;20.340;2023-07-13T14:26:13;1024.30;1433.60
54796;DHT22;40693;43.884;20.340;2023-07-13T14:28:45;1024.30;1459.20
54796;DHT22;40693;43.884;20.340;2023-07-13T14:31:12;1024.10;1459.20
54796;DHT22;40693;43.884;20.340;2023-07-13T14:33:42;1024.00;1484.80
54796;DHT22;40693;43.884;20.340;2023-07-13T14:38:45;999.30;1484.80
54796;DHT22;40693;43.884;20.340;2023-07-13T14:41:11;999.30;1484.80
54796;DHT22;40693;43.884;20.340;2023-07-13T14:43:36;999.30;1510.40
54796;DHT22;40693;43.884;20.340;2023-07-13T14:46:02;999.30;1484.80
54796;DHT22;40693;43.884;20.340;2023-07-13T14:48:29;999.30;1484.80
54796;DHT22;40693;43.884;20.340;2023-07-13T14:50:58;1024.00;1510.40
54796;DHT22;40693;43.884;20.340;2023-07-13T14:53:27;999.30;1510.40
54796;DHT22;40693;43.884;20.340;2023-07-13T14:55:53;999.30;1510.40
54796;DHT22;40693;43.884;20.340;2023-07-13T14:58:19;999.30;1510.40
54796;DHT22;40693;43.884;20.340;2023-07-13T15:00:45;999.30;1510.40
54796;DHT22;40693;43.884;20.340;2023-07-13T15:03:23;999.30;1536.00
54796;DHT22;40693;43.884;20.340;2023-07-13T15:05:51;999.30;1536.00
54796;DHT22;40693;43.884;20.340;2023-07-13T15:08:18;999.20;1536.00
54796;DHT22;40693;43.884;20.340;2023-07-13T15:10:44;999.30;1536.00
54796;DHT22;40693;43.884;20.340;2023-07-13T15:13:20;999.30;1510.40
54796;DHT22;40693;43.884;20.340;2023-07-13T15:15:49;999.20;1536.00
54796;DHT22;40693;43.884;20.340;2023-07-13T15:18:32;999.20;1510.40
54796;DHT22;40693;43.884;20.340;2023-07-13T15:20:58;999.20;1510.40
54796;DHT22;40693;43.884;20.340;2023-07-13T15:23:28;999.10;1510.40
54796;DHT22;40693;43.884;20.340;2023-07-13T15:25:54;999.10;1510.40
54796;DHT22;40693;43.884;20.340;2023-07-13T15:28:19;999.10;1536.00